Flight Track Log - Related Links

Times and Time Zones

All times are in EDT time to prevent confusion due to time zone crossing. See the ARG1646 flight status page for this flight to view local times or setup timezone preferences in your user account.

Time Position Orientation Groundspeed Altitude Reporting Facility
EDT Latitude Longitude Course Direction KTS MPH feet Rate Location/Type
Thu 04:28:00 PM -37.6217 -61.1241 215° Southwest  Level Estimated
Thu 04:29:00 PM -37.6906 -61.1881 216° Southwest  Level Estimated
Thu 04:30:00 PM -37.7594 -61.2523 216° Southwest  Level Estimated
Thu 04:31:00 PM -37.8283 -61.3167 216° Southwest  Level Estimated
Thu 04:32:00 PM -37.8970 -61.3811 216° Southwest  Level Estimated
Thu 04:33:00 PM -37.9658 -61.4457 217° Southwest  Level Estimated
Thu 04:34:00 PM -38.0344 -61.5104 217° Southwest  Level Estimated
Thu 04:35:00 PM -38.1031 -61.5752 217° Southwest  Level Estimated
Thu 04:36:00 PM -38.1717 -61.6401 217° Southwest  Level Estimated
Thu 04:37:00 PM -38.2403 -61.7052 217° Southwest  Level Estimated
Thu 04:38:00 PM -38.3089 -61.7703 217° Southwest  Level Estimated
Thu 04:39:00 PM -38.3774 -61.8356 217° Southwest  Level Estimated
Thu 04:40:00 PM -38.4459 -61.9010 217° Southwest  Level Estimated
Thu 04:41:00 PM -38.5143 -61.9666 217° Southwest  Level Estimated
Thu 04:42:00 PM -38.5827 -62.0322 217° Southwest  Level Estimated
Thu 04:43:00 PM -38.6511 -62.0980 217° Southwest  Level Estimated
Thu 04:44:00 PM -38.7194 -62.1640 217° Southwest  Level Estimated
Thu 04:45:00 PM -38.7250 -62.1693 217° Southwest  Level Estimated
Thu 04:46:00 PM -38.7250 -62.1693 North  Level Estimated
Thu 04:47:00 PM -38.7250 -62.1693 North  Level Estimated
Thu 04:48:00 PM -38.7250 -62.1693 North  Level Estimated
Thu 04:49:00 PM -38.7250 -62.1693 North  Level Estimated
Thu 04:50:00 PM -38.7250 -62.1693 North  Level Estimated
Thu 04:51:00 PM -38.7250 -62.1693 North  Level Estimated
Thu 04:52:00 PM -38.7250 -62.1693 North  Level Estimated
Thu 04:53:00 PM -38.7250 -62.1693 North  Level Estimated
Thu 04:54:00 PM -38.7250 -62.1693 North  Level Estimated
Thu 04:55:00 PM -38.7250 -62.1693 North  Level Estimated
Thu 04:56:00 PM -38.7250 -62.1693 North  Level Estimated
Thu 04:57:00 PM -38.7250 -62.1693 North  Level Estimated
Thu 04:58:00 PM -38.7250 -62.1693 North  Level Estimated
Thu 04:59:00 PM -38.7250 -62.1693 North  Level Estimated
Thu 05:00:00 PM -38.7250 -62.1693 North  Level Estimated

Login

Don't have an account? Register now (free) for customized features, flight alerts, and more!